sensor_id;sensor_type;location;lat;lon;timestamp;P1;durP1;ratioP1;P2;durP2;ratioP2
22382;SDS011;11359;45.802;13.530;2022-10-16T00:01:24;6.05;;;5.45;;
22382;SDS011;11359;45.802;13.530;2022-10-16T00:03:52;6.25;;;5.65;;
22382;SDS011;11359;45.802;13.530;2022-10-16T00:06:18;6.63;;;5.97;;
22382;SDS011;11359;45.802;13.530;2022-10-16T00:08:45;5.78;;;5.18;;
22382;SDS011;11359;45.802;13.530;2022-10-16T00:11:15;6.07;;;5.47;;
22382;SDS011;11359;45.802;13.530;2022-10-16T00:13:44;6.00;;;5.35;;
22382;SDS011;11359;45.802;13.530;2022-10-16T00:16:11;5.95;;;5.30;;
22382;SDS011;11359;45.802;13.530;2022-10-16T00:18:38;6.10;;;5.50;;
22382;SDS011;11359;45.802;13.530;2022-10-16T00:21:08;5.70;;;5.10;;
22382;SDS011;11359;45.802;13.530;2022-10-16T00:23:36;5.55;;;5.05;;
22382;SDS011;11359;45.802;13.530;2022-10-16T00:26:03;5.30;;;4.80;;
22382;SDS011;11359;45.802;13.530;2022-10-16T00:28:31;6.00;;;5.40;;
22382;SDS011;11359;45.802;13.530;2022-10-16T00:30:57;6.07;;;5.30;;
22382;SDS011;11359;45.802;13.530;2022-10-16T00:33:24;6.13;;;5.53;;
22382;SDS011;11359;45.802;13.530;2022-10-16T00:35:49;5.63;;;5.03;;
22382;SDS011;11359;45.802;13.530;2022-10-16T00:38:15;5.32;;;4.82;;
22382;SDS011;11359;45.802;13.530;2022-10-16T00:40:41;5.65;;;5.07;;
22382;SDS011;11359;45.802;13.530;2022-10-16T00:43:14;5.78;;;5.18;;
22382;SDS011;11359;45.802;13.530;2022-10-16T00:46:00;5.97;;;5.38;;
22382;SDS011;11359;45.802;13.530;2022-10-16T00:48:27;6.47;;;5.85;;
22382;SDS011;11359;45.802;13.530;2022-10-16T00:50:53;5.68;;;5.00;;
22382;SDS011;11359;45.802;13.530;2022-10-16T00:53:20;5.72;;;5.22;;
22382;SDS011;11359;45.802;13.530;2022-10-16T00:55:47;5.88;;;5.32;;
22382;SDS011;11359;45.802;13.530;2022-10-16T00:58:12;5.63;;;5.03;;
22382;SDS011;11359;45.802;13.530;2022-10-16T01:00:38;5.93;;;5.32;;
22382;SDS011;11359;45.802;13.530;2022-10-16T01:03:21;5.82;;;5.22;;
22382;SDS011;11359;45.802;13.530;2022-10-16T01:05:50;6.13;;;5.53;;
22382;SDS011;11359;45.802;13.530;2022-10-16T01:08:30;7.05;;;6.18;;
22382;SDS011;11359;45.802;13.530;2022-10-16T01:11:10;7.05;;;5.95;;
22382;SDS011;11359;45.802;13.530;2022-10-16T01:13:48;6.28;;;5.65;;
22382;SDS011;11359;45.802;13.530;2022-10-16T01:22:05;7.20;;;6.50;;
22382;SDS011;11359;45.802;13.530;2022-10-16T01:24:41;6.22;;;5.63;;
22382;SDS011;11359;45.802;13.530;2022-10-16T01:27:14;5.82;;;5.20;;
22382;SDS011;11359;45.802;13.530;2022-10-16T01:35:05;6.82;;;5.90;;
22382;SDS011;11359;45.802;13.530;2022-10-16T01:37:38;6.97;;;6.27;;
22382;SDS011;11359;45.802;13.530;2022-10-16T01:40:12;6.95;;;6.25;;
22382;SDS011;11359;45.802;13.530;2022-10-16T01:42:42;6.75;;;6.10;;
22382;SDS011;11359;45.802;13.530;2022-10-16T01:45:30;6.82;;;6.13;;
22382;SDS011;11359;45.802;13.530;2022-10-16T01:47:58;7.05;;;6.35;;
22382;SDS011;11359;45.802;13.530;2022-10-16T01:50:25;6.20;;;5.60;;
22382;SDS011;11359;45.802;13.530;2022-10-16T01:52:52;6.47;;;5.57;;
22382;SDS011;11359;45.802;13.530;2022-10-16T01:55:28;6.07;;;5.47;;
22382;SDS011;11359;45.802;13.530;2022-10-16T01:57:57;5.68;;;5.15;;
22382;SDS011;11359;45.802;13.530;2022-10-16T02:00:24;5.22;;;4.72;;
22382;SDS011;11359;45.802;13.530;2022-10-16T02:02:52;5.72;;;5.13;;
22382;SDS011;11359;45.802;13.530;2022-10-16T02:08:16;5.70;;;4.82;;
22382;SDS011;11359;45.802;13.530;2022-10-16T02:10:42;5.72;;;5.13;;
22382;SDS011;11359;45.802;13.530;2022-10-16T02:15:36;5.65;;;5.13;;
22382;SDS011;11359;45.802;13.530;2022-10-16T02:18:03;5.50;;;5.00;;
22382;SDS011;11359;45.802;13.530;2022-10-16T02:20:32;5.47;;;4.97;;
22382;SDS011;11359;45.802;13.530;2022-10-16T02:23:02;5.35;;;4.85;;
22382;SDS011;11359;45.802;13.530;2022-10-16T02:25:32;5.47;;;4.97;;
22382;SDS011;11359;45.802;13.530;2022-10-16T02:30:43;5.15;;;4.65;;
22382;SDS011;11359;45.802;13.530;2022-10-16T02:33:14;5.28;;;4.78;;
22382;SDS011;11359;45.802;13.530;2022-10-16T02:35:41;5.10;;;4.60;;
22382;SDS011;11359;45.802;13.530;2022-10-16T02:38:09;5.40;;;4.90;;
22382;SDS011;11359;45.802;13.530;2022-10-16T02:40:36;5.10;;;4.60;;
22382;SDS011;11359;45.802;13.530;2022-10-16T02:43:03;5.18;;;4.68;;
22382;SDS011;11359;45.802;13.530;2022-10-16T02:45:29;5.50;;;4.63;;
22382;SDS011;11359;45.802;13.530;2022-10-16T02:47:55;5.00;;;4.50;;
22382;SDS011;11359;45.802;13.530;2022-10-16T02:50:21;4.25;;;3.85;;
22382;SDS011;11359;45.802;13.530;2022-10-16T02:52:47;5.03;;;4.53;;
22382;SDS011;11359;45.802;13.530;2022-10-16T02:55:13;5.10;;;4.50;;
22382;SDS011;11359;45.802;13.530;2022-10-16T02:57:39;4.63;;;4.22;;
22382;SDS011;11359;45.802;13.530;2022-10-16T03:00:05;5.03;;;4.53;;
22382;SDS011;11359;45.802;13.530;2022-10-16T03:02:36;4.57;;;4.18;;
22382;SDS011;11359;45.802;13.530;2022-10-16T03:05:02;4.60;;;4.20;;
22382;SDS011;11359;45.802;13.530;2022-10-16T03:07:28;4.50;;;4.10;;
22382;SDS011;11359;45.802;13.530;2022-10-16T03:09:53;4.55;;;4.15;;
22382;SDS011;11359;45.802;13.530;2022-10-16T03:12:20;4.68;;;4.25;;
22382;SDS011;11359;45.802;13.530;2022-10-16T03:14:46;5.60;;;4.97;;
22382;SDS011;11359;45.802;13.530;2022-10-16T03:17:12;4.65;;;4.15;;
22382;SDS011;11359;45.802;13.530;2022-10-16T03:19:38;5.10;;;4.60;;
22382;SDS011;11359;45.802;13.530;2022-10-16T03:22:04;4.40;;;4.00;;
22382;SDS011;11359;45.802;13.530;2022-10-16T03:24:30;5.13;;;4.53;;
22382;SDS011;11359;45.802;13.530;2022-10-16T03:26:55;4.40;;;4.00;;
22382;SDS011;11359;45.802;13.530;2022-10-16T03:29:21;4.45;;;4.05;;
22382;SDS011;11359;45.802;13.530;2022-10-16T03:31:47;3.85;;;3.50;;
22382;SDS011;11359;45.802;13.530;2022-10-16T03:34:14;4.78;;;4.35;;
22382;SDS011;11359;45.802;13.530;2022-10-16T03:36:40;4.68;;;4.15;;
22382;SDS011;11359;45.802;13.530;2022-10-16T03:39:06;4.32;;;3.92;;
22382;SDS011;11359;45.802;13.530;2022-10-16T03:41:31;4.72;;;4.25;;
22382;SDS011;11359;45.802;13.530;2022-10-16T03:43:57;4.38;;;3.97;;
22382;SDS011;11359;45.802;13.530;2022-10-16T03:46:23;5.10;;;4.60;;
22382;SDS011;11359;45.802;13.530;2022-10-16T03:48:49;4.78;;;4.28;;
22382;SDS011;11359;45.802;13.530;2022-10-16T03:51:14;4.72;;;4.22;;
22382;SDS011;11359;45.802;13.530;2022-10-16T03:53:40;5.28;;;4.78;;
22382;SDS011;11359;45.802;13.530;2022-10-16T03:56:06;4.43;;;4.03;;
22382;SDS011;11359;45.802;13.530;2022-10-16T03:58:31;4.85;;;4.35;;
22382;SDS011;11359;45.802;13.530;2022-10-16T04:00:57;4.93;;;4.43;;
22382;SDS011;11359;45.802;13.530;2022-10-16T04:03:23;4.25;;;3.85;;
22382;SDS011;11359;45.802;13.530;2022-10-16T04:05:49;4.65;;;4.07;;
22382;SDS011;11359;45.802;13.530;2022-10-16T04:08:15;4.60;;;4.20;;
22382;SDS011;11359;45.802;13.530;2022-10-16T04:10:44;4.18;;;3.78;;
22382;SDS011;11359;45.802;13.530;2022-10-16T04:13:10;4.53;;;4.03;;
22382;SDS011;11359;45.802;13.530;2022-10-16T04:15:36;4.30;;;3.90;;
22382;SDS011;11359;45.802;13.530;2022-10-16T04:18:02;3.97;;;3.60;;
22382;SDS011;11359;45.802;13.530;2022-10-16T04:20:28;4.63;;;4.10;;
22382;SDS011;11359;45.802;13.530;2022-10-16T04:22:55;4.25;;;3.85;;
22382;SDS011;11359;45.802;13.530;2022-10-16T04:25:21;4.20;;;3.80;;
22382;SDS011;11359;45.802;13.530;2022-10-16T04:27:46;4.57;;;4.10;;
22382;SDS011;11359;45.802;13.530;2022-10-16T04:30:12;3.78;;;3.38;;
22382;SDS011;11359;45.802;13.530;2022-10-16T04:32:38;3.97;;;3.58;;
22382;SDS011;11359;45.802;13.530;2022-10-16T04:35:04;4.38;;;3.97;;
22382;SDS011;11359;45.802;13.530;2022-10-16T04:37:30;4.07;;;3.58;;
22382;SDS011;11359;45.802;13.530;2022-10-16T04:39:56;4.40;;;3.95;;
22382;SDS011;11359;45.802;13.530;2022-10-16T04:42:22;5.68;;;5.07;;
22382;SDS011;11359;45.802;13.530;2022-10-16T04:44:48;6.47;;;5.53;;
22382;SDS011;11359;45.802;13.530;2022-10-16T04:47:13;6.50;;;5.90;;
22382;SDS011;11359;45.802;13.530;2022-10-16T04:49:39;6.55;;;5.93;;
22382;SDS011;11359;45.802;13.530;2022-10-16T04:52:05;6.20;;;5.60;;
22382;SDS011;11359;45.802;13.530;2022-10-16T04:54:31;6.00;;;5.40;;
22382;SDS011;11359;45.802;13.530;2022-10-16T04:56:57;5.18;;;4.68;;
22382;SDS011;11359;45.802;13.530;2022-10-16T04:59:22;5.25;;;4.75;;
22382;SDS011;11359;45.802;13.530;2022-10-16T05:01:48;5.30;;;4.80;;
22382;SDS011;11359;45.802;13.530;2022-10-16T05:04:14;5.28;;;4.78;;
22382;SDS011;11359;45.802;13.530;2022-10-16T05:06:40;5.70;;;5.15;;
22382;SDS011;11359;45.802;13.530;2022-10-16T05:09:07;5.93;;;5.32;;
22382;SDS011;11359;45.802;13.530;2022-10-16T05:11:33;5.22;;;4.72;;
22382;SDS011;11359;45.802;13.530;2022-10-16T05:13:59;5.88;;;5.25;;
22382;SDS011;11359;45.802;13.530;2022-10-16T05:16:25;5.05;;;4.55;;
22382;SDS011;11359;45.802;13.530;2022-10-16T05:18:51;5.55;;;4.97;;
22382;SDS011;11359;45.802;13.530;2022-10-16T05:21:17;5.80;;;5.20;;
22382;SDS011;11359;45.802;13.530;2022-10-16T05:23:43;5.65;;;5.10;;
22382;SDS011;11359;45.802;13.530;2022-10-16T05:26:09;5.72;;;5.05;;
22382;SDS011;11359;45.802;13.530;2022-10-16T05:28:35;5.00;;;4.50;;
22382;SDS011;11359;45.802;13.530;2022-10-16T05:31:05;5.03;;;4.50;;
22382;SDS011;11359;45.802;13.530;2022-10-16T05:33:31;5.15;;;4.63;;
22382;SDS011;11359;45.802;13.530;2022-10-16T05:36:00;5.00;;;4.50;;
22382;SDS011;11359;45.802;13.530;2022-10-16T05:38:28;4.55;;;4.15;;
22382;SDS011;11359;45.802;13.530;2022-10-16T05:40:54;4.10;;;3.70;;
22382;SDS011;11359;45.802;13.530;2022-10-16T05:43:20;3.95;;;3.63;;
22382;SDS011;11359;45.802;13.530;2022-10-16T05:45:59;4.55;;;4.15;;
22382;SDS011;11359;45.802;13.530;2022-10-16T05:48:30;4.85;;;4.43;;
22382;SDS011;11359;45.802;13.530;2022-10-16T05:50:59;4.15;;;3.75;;
22382;SDS011;11359;45.802;13.530;2022-10-16T05:53:28;4.20;;;3.63;;
22382;SDS011;11359;45.802;13.530;2022-10-16T05:55:55;5.13;;;4.63;;
22382;SDS011;11359;45.802;13.530;2022-10-16T05:58:21;4.40;;;4.00;;
22382;SDS011;11359;45.802;13.530;2022-10-16T06:00:54;4.50;;;3.80;;
22382;SDS011;11359;45.802;13.530;2022-10-16T06:03:27;4.07;;;3.67;;
22382;SDS011;11359;45.802;13.530;2022-10-16T06:05:53;4.75;;;4.10;;
22382;SDS011;11359;45.802;13.530;2022-10-16T06:08:20;4.05;;;3.58;;
22382;SDS011;11359;45.802;13.530;2022-10-16T06:10:46;4.00;;;3.60;;
22382;SDS011;11359;45.802;13.530;2022-10-16T06:13:13;4.25;;;3.85;;
22382;SDS011;11359;45.802;13.530;2022-10-16T06:15:39;4.28;;;3.80;;
22382;SDS011;11359;45.802;13.530;2022-10-16T06:18:07;3.88;;;3.47;;
22382;SDS011;11359;45.802;13.530;2022-10-16T06:20:33;3.95;;;3.55;;
22382;SDS011;11359;45.802;13.530;2022-10-16T06:22:59;3.45;;;3.15;;
22382;SDS011;11359;45.802;13.530;2022-10-16T06:25:25;3.28;;;2.97;;
22382;SDS011;11359;45.802;13.530;2022-10-16T06:27:50;3.38;;;3.08;;
22382;SDS011;11359;45.802;13.530;2022-10-16T06:30:16;3.70;;;3.40;;
22382;SDS011;11359;45.802;13.530;2022-10-16T06:32:42;3.90;;;3.60;;
22382;SDS011;11359;45.802;13.530;2022-10-16T06:35:07;3.70;;;3.38;;
22382;SDS011;11359;45.802;13.530;2022-10-16T06:37:33;3.45;;;3.10;;
22382;SDS011;11359;45.802;13.530;2022-10-16T06:39:59;3.25;;;2.95;;
22382;SDS011;11359;45.802;13.530;2022-10-16T06:42:25;3.30;;;3.00;;
22382;SDS011;11359;45.802;13.530;2022-10-16T06:44:51;3.17;;;2.85;;
22382;SDS011;11359;45.802;13.530;2022-10-16T06:47:16;3.35;;;3.05;;
22382;SDS011;11359;45.802;13.530;2022-10-16T06:49:42;4.00;;;3.15;;
22382;SDS011;11359;45.802;13.530;2022-10-16T06:52:08;3.60;;;3.30;;
22382;SDS011;11359;45.802;13.530;2022-10-16T06:54:34;3.30;;;3.00;;
22382;SDS011;11359;45.802;13.530;2022-10-16T06:56:59;3.50;;;3.20;;
22382;SDS011;11359;45.802;13.530;2022-10-16T07:08:21;3.55;;;3.25;;
22382;SDS011;11359;45.802;13.530;2022-10-16T07:10:46;3.33;;;3.03;;
22382;SDS011;11359;45.802;13.530;2022-10-16T07:13:12;3.28;;;2.97;;
22382;SDS011;11359;45.802;13.530;2022-10-16T07:15:39;3.40;;;3.10;;
22382;SDS011;11359;45.802;13.530;2022-10-16T07:18:05;3.10;;;2.80;;
22382;SDS011;11359;45.802;13.530;2022-10-16T07:20:31;3.42;;;3.13;;
22382;SDS011;11359;45.802;13.530;2022-10-16T07:22:56;3.28;;;2.97;;
22382;SDS011;11359;45.802;13.530;2022-10-16T07:25:22;3.22;;;2.92;;
22382;SDS011;11359;45.802;13.530;2022-10-16T07:27:48;3.13;;;2.83;;
22382;SDS011;11359;45.802;13.530;2022-10-16T07:30:13;3.42;;;3.13;;
22382;SDS011;11359;45.802;13.530;2022-10-16T07:32:39;3.10;;;2.80;;
22382;SDS011;11359;45.802;13.530;2022-10-16T07:35:05;3.28;;;2.97;;
22382;SDS011;11359;45.802;13.530;2022-10-16T07:37:31;3.60;;;3.30;;
22382;SDS011;11359;45.802;13.530;2022-10-16T07:39:57;4.32;;;3.90;;
22382;SDS011;11359;45.802;13.530;2022-10-16T07:42:22;4.00;;;3.60;;
22382;SDS011;11359;45.802;13.530;2022-10-16T07:44:48;3.72;;;3.28;;
22382;SDS011;11359;45.802;13.530;2022-10-16T07:47:13;4.45;;;3.28;;
22382;SDS011;11359;45.802;13.530;2022-10-16T07:49:39;3.47;;;3.17;;
22382;SDS011;11359;45.802;13.530;2022-10-16T07:52:05;3.10;;;2.78;;
22382;SDS011;11359;45.802;13.530;2022-10-16T07:54:30;4.10;;;3.05;;
22382;SDS011;11359;45.802;13.530;2022-10-16T07:56:56;3.53;;;3.22;;
22382;SDS011;11359;45.802;13.530;2022-10-16T07:59:22;3.38;;;3.00;;
22382;SDS011;11359;45.802;13.530;2022-10-16T08:01:48;2.90;;;2.60;;
22382;SDS011;11359;45.802;13.530;2022-10-16T08:04:14;3.28;;;2.97;;
22382;SDS011;11359;45.802;13.530;2022-10-16T08:06:40;3.00;;;2.60;;
22382;SDS011;11359;45.802;13.530;2022-10-16T08:09:06;4.07;;;3.67;;
22382;SDS011;11359;45.802;13.530;2022-10-16T08:11:33;4.40;;;4.00;;
22382;SDS011;11359;45.802;13.530;2022-10-16T08:13:59;4.50;;;3.95;;
22382;SDS011;11359;45.802;13.530;2022-10-16T08:16:24;4.05;;;3.65;;
22382;SDS011;11359;45.802;13.530;2022-10-16T08:18:50;3.72;;;3.42;;
22382;SDS011;11359;45.802;13.530;2022-10-16T08:21:17;4.72;;;4.07;;
22382;SDS011;11359;45.802;13.530;2022-10-16T08:23:45;5.00;;;4.50;;
22382;SDS011;11359;45.802;13.530;2022-10-16T08:26:11;4.55;;;4.13;;
22382;SDS011;11359;45.802;13.530;2022-10-16T08:28:37;4.55;;;3.80;;
22382;SDS011;11359;45.802;13.530;2022-10-16T08:33:40;3.88;;;3.50;;
22382;SDS011;11359;45.802;13.530;2022-10-16T08:36:09;3.20;;;2.90;;
22382;SDS011;11359;45.802;13.530;2022-10-16T08:38:36;3.25;;;2.95;;
22382;SDS011;11359;45.802;13.530;2022-10-16T08:46:56;3.05;;;2.75;;
22382;SDS011;11359;45.802;13.530;2022-10-16T08:49:37;2.55;;;2.35;;
22382;SDS011;11359;45.802;13.530;2022-10-16T08:52:08;3.05;;;2.75;;
22382;SDS011;11359;45.802;13.530;2022-10-16T08:54:39;2.45;;;2.25;;
22382;SDS011;11359;45.802;13.530;2022-10-16T08:57:13;3.13;;;2.78;;
22382;SDS011;11359;45.802;13.530;2022-10-16T08:59:42;3.50;;;3.20;;
22382;SDS011;11359;45.802;13.530;2022-10-16T09:02:17;3.47;;;3.13;;
22382;SDS011;11359;45.802;13.530;2022-10-16T09:12:49;7.03;;;6.32;;
22382;SDS011;11359;45.802;13.530;2022-10-16T09:21:21;10.02;;;9.02;;
22382;SDS011;11359;45.802;13.530;2022-10-16T09:23:50;8.55;;;7.75;;
22382;SDS011;11359;45.802;13.530;2022-10-16T09:26:16;7.05;;;6.35;;
22382;SDS011;11359;45.802;13.530;2022-10-16T09:28:44;8.30;;;7.50;;
22382;SDS011;11359;45.802;13.530;2022-10-16T09:31:13;7.47;;;6.78;;
22382;SDS011;11359;45.802;13.530;2022-10-16T09:33:41;6.68;;;6.07;;
22382;SDS011;11359;45.802;13.530;2022-10-16T09:36:08;7.90;;;7.10;;
22382;SDS011;11359;45.802;13.530;2022-10-16T09:38:36;11.07;;;9.88;;
22382;SDS011;11359;45.802;13.530;2022-10-16T09:41:03;12.57;;;11.27;;
22382;SDS011;11359;45.802;13.530;2022-10-16T09:43:52;12.57;;;11.27;;
22382;SDS011;11359;45.802;13.530;2022-10-16T09:46:21;12.93;;;11.52;;
22382;SDS011;11359;45.802;13.530;2022-10-16T09:48:48;10.85;;;9.75;;
22382;SDS011;11359;45.802;13.530;2022-10-16T09:51:26;10.50;;;9.40;;
22382;SDS011;11359;45.802;13.530;2022-10-16T09:54:00;10.35;;;9.35;;
22382;SDS011;11359;45.802;13.530;2022-10-16T09:56:35;9.05;;;8.15;;
22382;SDS011;11359;45.802;13.530;2022-10-16T09:59:11;7.40;;;6.70;;
22382;SDS011;11359;45.802;13.530;2022-10-16T10:01:39;9.55;;;8.63;;
22382;SDS011;11359;45.802;13.530;2022-10-16T10:04:07;11.10;;;8.80;;
22382;SDS011;11359;45.802;13.530;2022-10-16T10:06:52;7.88;;;7.07;;
22382;SDS011;11359;45.802;13.530;2022-10-16T10:09:20;7.40;;;6.70;;
22382;SDS011;11359;45.802;13.530;2022-10-16T10:11:55;8.73;;;7.78;;
22382;SDS011;11359;45.802;13.530;2022-10-16T10:14:22;9.93;;;8.93;;
22382;SDS011;11359;45.802;13.530;2022-10-16T10:16:48;8.15;;;7.35;;
22382;SDS011;11359;45.802;13.530;2022-10-16T10:19:16;9.02;;;8.13;;
22382;SDS011;11359;45.802;13.530;2022-10-16T10:21:43;8.93;;;8.02;;
22382;SDS011;11359;45.802;13.530;2022-10-16T10:24:13;9.13;;;8.23;;
22382;SDS011;11359;45.802;13.530;2022-10-16T10:32:02;17.83;;;15.93;;
22382;SDS011;11359;45.802;13.530;2022-10-16T11:02:39;7.53;;;6.72;;
22382;SDS011;11359;45.802;13.530;2022-10-16T11:08:02;14.05;;;11.75;;
22382;SDS011;11359;45.802;13.530;2022-10-16T11:10:45;13.38;;;11.98;;
22382;SDS011;11359;45.802;13.530;2022-10-16T11:15:50;10.48;;;9.38;;
22382;SDS011;11359;45.802;13.530;2022-10-16T11:18:45;9.02;;;8.13;;
22382;SDS011;11359;45.802;13.530;2022-10-16T11:21:12;8.68;;;7.80;;
22382;SDS011;11359;45.802;13.530;2022-10-16T11:23:47;11.05;;;9.95;;
22382;SDS011;11359;45.802;13.530;2022-10-16T11:26:26;10.93;;;9.80;;
22382;SDS011;11359;45.802;13.530;2022-10-16T11:28:54;9.32;;;8.43;;
22382;SDS011;11359;45.802;13.530;2022-10-16T11:39:24;7.43;;;6.73;;
22382;SDS011;11359;45.802;13.530;2022-10-16T11:42:03;6.88;;;6.28;;
22382;SDS011;11359;45.802;13.530;2022-10-16T11:47:27;7.72;;;6.88;;
22382;SDS011;11359;45.802;13.530;2022-10-16T11:50:27;6.68;;;6.00;;
22382;SDS011;11359;45.802;13.530;2022-10-16T11:55:59;5.10;;;4.60;;
22382;SDS011;11359;45.802;13.530;2022-10-16T11:58:30;6.85;;;6.20;;
22382;SDS011;11359;45.802;13.530;2022-10-16T12:01:02;5.95;;;5.43;;
22382;SDS011;11359;45.802;13.530;2022-10-16T12:09:02;6.90;;;6.20;;
22382;SDS011;11359;45.802;13.530;2022-10-16T12:14:16;5.30;;;4.80;;
22382;SDS011;11359;45.802;13.530;2022-10-16T12:16:55;4.50;;;4.10;;
22382;SDS011;11359;45.802;13.530;2022-10-16T12:19:24;4.82;;;4.43;;
22382;SDS011;11359;45.802;13.530;2022-10-16T12:21:52;3.90;;;3.50;;
22382;SDS011;11359;45.802;13.530;2022-10-16T12:27:00;5.22;;;4.72;;
22382;SDS011;11359;45.802;13.530;2022-10-16T12:29:34;5.97;;;5.38;;
22382;SDS011;11359;45.802;13.530;2022-10-16T12:32:20;6.05;;;5.45;;
22382;SDS011;11359;45.802;13.530;2022-10-16T12:34:59;6.65;;;6.03;;
22382;SDS011;11359;45.802;13.530;2022-10-16T12:37:28;5.78;;;5.28;;
22382;SDS011;11359;45.802;13.530;2022-10-16T12:39:59;5.82;;;5.32;;
22382;SDS011;11359;45.802;13.530;2022-10-16T12:42:38;5.70;;;5.13;;
22382;SDS011;11359;45.802;13.530;2022-10-16T12:45:49;5.90;;;5.30;;
22382;SDS011;11359;45.802;13.530;2022-10-16T12:47:57;6.43;;;5.82;;
22382;SDS011;11359;45.802;13.530;2022-10-16T12:50:34;5.85;;;5.28;;
22382;SDS011;11359;45.802;13.530;2022-10-16T12:53:03;5.40;;;4.90;;
22382;SDS011;11359;45.802;13.530;2022-10-16T12:55:52;5.88;;;5.28;;
22382;SDS011;11359;45.802;13.530;2022-10-16T13:06:51;5.38;;;4.88;;
22382;SDS011;11359;45.802;13.530;2022-10-16T13:12:34;6.20;;;5.60;;
22382;SDS011;11359;45.802;13.530;2022-10-16T13:17:58;6.22;;;5.63;;
22382;SDS011;11359;45.802;13.530;2022-10-16T13:26:44;6.90;;;6.20;;
22382;SDS011;11359;45.802;13.530;2022-10-16T13:29:17;6.60;;;6.00;;
22382;SDS011;11359;45.802;13.530;2022-10-16T13:31:44;5.75;;;5.25;;
22382;SDS011;11359;45.802;13.530;2022-10-16T13:34:12;5.63;;;5.13;;
22382;SDS011;11359;45.802;13.530;2022-10-16T13:36:43;5.65;;;5.15;;
22382;SDS011;11359;45.802;13.530;2022-10-16T13:41:42;6.47;;;5.88;;
22382;SDS011;11359;45.802;13.530;2022-10-16T13:44:15;6.78;;;6.07;;
22382;SDS011;11359;45.802;13.530;2022-10-16T13:46:44;5.53;;;5.03;;
22382;SDS011;11359;45.802;13.530;2022-10-16T13:49:23;5.40;;;4.90;;
22382;SDS011;11359;45.802;13.530;2022-10-16T13:51:55;5.93;;;4.50;;
22382;SDS011;11359;45.802;13.530;2022-10-16T13:54:22;4.90;;;4.50;;
22382;SDS011;11359;45.802;13.530;2022-10-16T13:56:48;5.15;;;4.65;;
22382;SDS011;11359;45.802;13.530;2022-10-16T13:59:27;4.55;;;4.15;;
22382;SDS011;11359;45.802;13.530;2022-10-16T14:01:58;4.20;;;3.80;;
22382;SDS011;11359;45.802;13.530;2022-10-16T14:04:31;4.43;;;4.03;;
22382;SDS011;11359;45.802;13.530;2022-10-16T14:06:58;4.20;;;3.80;;
22382;SDS011;11359;45.802;13.530;2022-10-16T14:09:30;3.88;;;3.53;;
22382;SDS011;11359;45.802;13.530;2022-10-16T14:11:58;3.88;;;3.42;;
22382;SDS011;11359;45.802;13.530;2022-10-16T14:14:51;4.30;;;3.90;;
22382;SDS011;11359;45.802;13.530;2022-10-16T14:17:25;4.22;;;3.83;;
22382;SDS011;11359;45.802;13.530;2022-10-16T14:19:58;4.10;;;3.70;;
22382;SDS011;11359;45.802;13.530;2022-10-16T14:25:42;4.45;;;4.05;;
22382;SDS011;11359;45.802;13.530;2022-10-16T14:28:19;4.03;;;3.67;;
22382;SDS011;11359;45.802;13.530;2022-10-16T14:30:55;4.18;;;3.78;;
22382;SDS011;11359;45.802;13.530;2022-10-16T14:38:29;3.70;;;3.40;;
22382;SDS011;11359;45.802;13.530;2022-10-16T14:40:57;6.00;;;5.43;;
22382;SDS011;11359;45.802;13.530;2022-10-16T14:43:34;9.63;;;8.63;;
22382;SDS011;11359;45.802;13.530;2022-10-16T14:48:42;9.73;;;8.82;;
22382;SDS011;11359;45.802;13.530;2022-10-16T14:51:17;11.07;;;9.98;;
22382;SDS011;11359;45.802;13.530;2022-10-16T14:53:44;12.20;;;11.00;;
22382;SDS011;11359;45.802;13.530;2022-10-16T14:56:52;13.75;;;12.38;;
22382;SDS011;11359;45.802;13.530;2022-10-16T14:59:07;12.55;;;11.35;;
22382;SDS011;11359;45.802;13.530;2022-10-16T15:01:42;12.43;;;11.13;;
22382;SDS011;11359;45.802;13.530;2022-10-16T15:04:09;11.00;;;10.00;;
22382;SDS011;11359;45.802;13.530;2022-10-16T15:06:37;10.25;;;9.32;;
22382;SDS011;11359;45.802;13.530;2022-10-16T15:09:03;10.10;;;9.20;;
22382;SDS011;11359;45.802;13.530;2022-10-16T15:11:29;9.13;;;8.23;;
22382;SDS011;11359;45.802;13.530;2022-10-16T15:13:57;8.40;;;7.63;;
22382;SDS011;11359;45.802;13.530;2022-10-16T15:16:23;7.90;;;7.20;;
22382;SDS011;11359;45.802;13.530;2022-10-16T15:18:48;8.35;;;7.55;;
22382;SDS011;11359;45.802;13.530;2022-10-16T15:21:35;9.48;;;8.48;;
22382;SDS011;11359;45.802;13.530;2022-10-16T15:24:00;11.15;;;9.93;;
22382;SDS011;11359;45.802;13.530;2022-10-16T15:26:27;12.75;;;11.45;;
22382;SDS011;11359;45.802;13.530;2022-10-16T15:28:54;13.02;;;11.73;;
22382;SDS011;11359;45.802;13.530;2022-10-16T15:31:20;11.50;;;10.40;;
22382;SDS011;11359;45.802;13.530;2022-10-16T15:33:49;10.40;;;9.40;;
22382;SDS011;11359;45.802;13.530;2022-10-16T15:36:24;9.65;;;8.75;;
22382;SDS011;11359;45.802;13.530;2022-10-16T15:38:53;8.13;;;7.43;;
22382;SDS011;11359;45.802;13.530;2022-10-16T15:41:20;9.45;;;8.52;;
22382;SDS011;11359;45.802;13.530;2022-10-16T15:43:47;11.48;;;10.38;;
22382;SDS011;11359;45.802;13.530;2022-10-16T15:46:14;12.35;;;11.15;;
22382;SDS011;11359;45.802;13.530;2022-10-16T15:48:42;10.93;;;9.93;;
22382;SDS011;11359;45.802;13.530;2022-10-16T15:51:08;10.73;;;9.73;;
22382;SDS011;11359;45.802;13.530;2022-10-16T15:53:34;10.68;;;9.68;;
22382;SDS011;11359;45.802;13.530;2022-10-16T15:56:03;9.77;;;8.88;;
22382;SDS011;11359;45.802;13.530;2022-10-16T15:58:30;10.13;;;9.13;;
22382;SDS011;11359;45.802;13.530;2022-10-16T16:01:00;7.80;;;7.10;;
22382;SDS011;11359;45.802;13.530;2022-10-16T16:03:27;8.05;;;7.35;;
22382;SDS011;11359;45.802;13.530;2022-10-16T16:05:54;6.72;;;6.13;;
22382;SDS011;11359;45.802;13.530;2022-10-16T16:08:20;6.43;;;5.82;;
22382;SDS011;11359;45.802;13.530;2022-10-16T16:10:48;6.57;;;5.97;;
22382;SDS011;11359;45.802;13.530;2022-10-16T16:13:35;5.97;;;5.47;;
22382;SDS011;11359;45.802;13.530;2022-10-16T16:16:06;5.60;;;5.10;;
22382;SDS011;11359;45.802;13.530;2022-10-16T16:18:33;5.43;;;4.93;;
22382;SDS011;11359;45.802;13.530;2022-10-16T16:20:59;5.40;;;4.90;;
22382;SDS011;11359;45.802;13.530;2022-10-16T16:23:24;4.60;;;4.20;;
22382;SDS011;11359;45.802;13.530;2022-10-16T16:26:10;4.78;;;4.38;;
22382;SDS011;11359;45.802;13.530;2022-10-16T16:28:46;4.45;;;4.05;;
22382;SDS011;11359;45.802;13.530;2022-10-16T16:31:11;4.20;;;3.80;;
22382;SDS011;11359;45.802;13.530;2022-10-16T16:33:37;4.82;;;4.10;;
22382;SDS011;11359;45.802;13.530;2022-10-16T16:36:03;4.70;;;4.30;;
22382;SDS011;11359;45.802;13.530;2022-10-16T16:38:31;4.50;;;4.10;;
22382;SDS011;11359;45.802;13.530;2022-10-16T16:40:57;4.60;;;4.10;;
22382;SDS011;11359;45.802;13.530;2022-10-16T16:43:26;4.60;;;4.20;;
22382;SDS011;11359;45.802;13.530;2022-10-16T16:45:52;4.50;;;4.10;;
22382;SDS011;11359;45.802;13.530;2022-10-16T16:48:18;4.60;;;4.20;;
22382;SDS011;11359;45.802;13.530;2022-10-16T16:50:44;4.50;;;4.10;;
22382;SDS011;11359;45.802;13.530;2022-10-16T16:53:10;5.07;;;4.57;;
22382;SDS011;11359;45.802;13.530;2022-10-16T16:55:36;5.43;;;4.93;;
22382;SDS011;11359;45.802;13.530;2022-10-16T16:58:01;5.22;;;4.72;;
22382;SDS011;11359;45.802;13.530;2022-10-16T17:00:28;5.50;;;5.00;;
22382;SDS011;11359;45.802;13.530;2022-10-16T17:02:55;5.30;;;4.80;;
22382;SDS011;11359;45.802;13.530;2022-10-16T17:05:22;5.13;;;4.63;;
22382;SDS011;11359;45.802;13.530;2022-10-16T17:07:48;5.03;;;4.53;;
22382;SDS011;11359;45.802;13.530;2022-10-16T17:10:13;4.80;;;4.40;;
22382;SDS011;11359;45.802;13.530;2022-10-16T17:12:39;5.30;;;4.80;;